sensor_id;sensor_type;location;lat;lon;timestamp;P1;durP1;ratioP1;P2;durP2;ratioP2
62915;SDS011;49010;51.230;-2.306;2022-11-30T00:02:59;50.05;;;24.38;;
62915;SDS011;49010;51.230;-2.306;2022-11-30T00:06:41;50.95;;;23.23;;
62915;SDS011;49010;51.230;-2.306;2022-11-30T00:10:23;51.53;;;23.95;;
62915;SDS011;49010;51.230;-2.306;2022-11-30T00:14:05;47.53;;;22.15;;
62915;SDS011;49010;51.230;-2.306;2022-11-30T00:17:47;55.72;;;24.17;;
62915;SDS011;49010;51.230;-2.306;2022-11-30T00:21:29;51.28;;;23.85;;
62915;SDS011;49010;51.230;-2.306;2022-11-30T00:25:10;53.92;;;24.73;;
62915;SDS011;49010;51.230;-2.306;2022-11-30T00:28:52;56.78;;;26.30;;
62915;SDS011;49010;51.230;-2.306;2022-11-30T00:32:34;61.55;;;27.13;;
62915;SDS011;49010;51.230;-2.306;2022-11-30T00:36:17;54.30;;;24.55;;
62915;SDS011;49010;51.230;-2.306;2022-11-30T00:40:00;52.17;;;25.35;;
62915;SDS011;49010;51.230;-2.306;2022-11-30T00:43:42;50.20;;;24.27;;
62915;SDS011;49010;51.230;-2.306;2022-11-30T00:47:25;59.47;;;25.48;;
62915;SDS011;49010;51.230;-2.306;2022-11-30T00:51:07;54.15;;;24.67;;
62915;SDS011;49010;51.230;-2.306;2022-11-30T00:54:50;62.13;;;26.48;;
62915;SDS011;49010;51.230;-2.306;2022-11-30T00:58:32;57.92;;;25.95;;
62915;SDS011;49010;51.230;-2.306;2022-11-30T01:02:13;52.38;;;23.83;;
62915;SDS011;49010;51.230;-2.306;2022-11-30T01:06:00;54.42;;;26.52;;
62915;SDS011;49010;51.230;-2.306;2022-11-30T01:09:42;53.58;;;25.55;;
62915;SDS011;49010;51.230;-2.306;2022-11-30T01:13:24;54.92;;;24.77;;
62915;SDS011;49010;51.230;-2.306;2022-11-30T01:17:06;54.40;;;24.45;;
62915;SDS011;49010;51.230;-2.306;2022-11-30T01:20:48;50.38;;;24.15;;
62915;SDS011;49010;51.230;-2.306;2022-11-30T01:24:30;51.22;;;24.30;;
62915;SDS011;49010;51.230;-2.306;2022-11-30T01:28:11;55.70;;;24.05;;
62915;SDS011;49010;51.230;-2.306;2022-11-30T01:31:53;53.33;;;24.52;;
62915;SDS011;49010;51.230;-2.306;2022-11-30T01:35:35;49.08;;;22.60;;
62915;SDS011;49010;51.230;-2.306;2022-11-30T01:39:17;47.45;;;21.55;;
62915;SDS011;49010;51.230;-2.306;2022-11-30T01:42:58;46.78;;;21.80;;
62915;SDS011;49010;51.230;-2.306;2022-11-30T01:46:44;49.10;;;20.33;;
62915;SDS011;49010;51.230;-2.306;2022-11-30T01:50:34;53.22;;;23.05;;
62915;SDS011;49010;51.230;-2.306;2022-11-30T01:54:18;48.97;;;20.98;;
62915;SDS011;49010;51.230;-2.306;2022-11-30T01:58:12;51.03;;;20.67;;
62915;SDS011;49010;51.230;-2.306;2022-11-30T02:01:58;47.42;;;20.92;;
62915;SDS011;49010;51.230;-2.306;2022-11-30T02:05:40;45.00;;;20.17;;
62915;SDS011;49010;51.230;-2.306;2022-11-30T02:09:22;53.70;;;22.65;;
62915;SDS011;49010;51.230;-2.306;2022-11-30T02:13:08;41.80;;;19.92;;
62915;SDS011;49010;51.230;-2.306;2022-11-30T02:20:49;44.10;;;20.17;;
62915;SDS011;49010;51.230;-2.306;2022-11-30T02:32:55;44.80;;;21.08;;
62915;SDS011;49010;51.230;-2.306;2022-11-30T02:36:43;44.30;;;20.70;;
62915;SDS011;49010;51.230;-2.306;2022-11-30T02:40:27;43.03;;;17.67;;
62915;SDS011;49010;51.230;-2.306;2022-11-30T02:44:09;45.20;;;20.80;;
62915;SDS011;49010;51.230;-2.306;2022-11-30T02:48:03;39.45;;;17.98;;
62915;SDS011;49010;51.230;-2.306;2022-11-30T02:51:49;46.65;;;20.48;;
62915;SDS011;49010;51.230;-2.306;2022-11-30T02:55:32;40.67;;;18.48;;
62915;SDS011;49010;51.230;-2.306;2022-11-30T02:59:14;43.47;;;18.20;;
62915;SDS011;49010;51.230;-2.306;2022-11-30T03:02:56;38.58;;;17.08;;
62915;SDS011;49010;51.230;-2.306;2022-11-30T03:06:38;40.42;;;17.13;;
62915;SDS011;49010;51.230;-2.306;2022-11-30T03:10:20;39.90;;;18.45;;
62915;SDS011;49010;51.230;-2.306;2022-11-30T03:14:02;36.70;;;16.75;;
62915;SDS011;49010;51.230;-2.306;2022-11-30T03:17:44;34.28;;;16.80;;
62915;SDS011;49010;51.230;-2.306;2022-11-30T03:21:26;37.85;;;16.88;;
62915;SDS011;49010;51.230;-2.306;2022-11-30T03:25:08;42.17;;;18.27;;
62915;SDS011;49010;51.230;-2.306;2022-11-30T03:28:50;36.88;;;16.02;;
62915;SDS011;49010;51.230;-2.306;2022-11-30T03:32:32;38.85;;;17.85;;
62915;SDS011;49010;51.230;-2.306;2022-11-30T03:36:14;42.60;;;16.58;;
62915;SDS011;49010;51.230;-2.306;2022-11-30T03:39:56;42.17;;;16.55;;
62915;SDS011;49010;51.230;-2.306;2022-11-30T03:43:39;43.75;;;16.63;;
62915;SDS011;49010;51.230;-2.306;2022-11-30T03:47:21;42.33;;;16.77;;
62915;SDS011;49010;51.230;-2.306;2022-11-30T03:51:03;38.45;;;17.48;;
62915;SDS011;49010;51.230;-2.306;2022-11-30T03:54:45;37.22;;;18.10;;
62915;SDS011;49010;51.230;-2.306;2022-11-30T03:58:27;36.92;;;17.20;;
62915;SDS011;49010;51.230;-2.306;2022-11-30T04:02:10;36.30;;;16.63;;
62915;SDS011;49010;51.230;-2.306;2022-11-30T04:05:52;41.63;;;16.67;;
62915;SDS011;49010;51.230;-2.306;2022-11-30T04:09:33;36.22;;;16.13;;
62915;SDS011;49010;51.230;-2.306;2022-11-30T04:13:15;35.97;;;14.98;;
62915;SDS011;49010;51.230;-2.306;2022-11-30T04:16:57;37.85;;;16.17;;
62915;SDS011;49010;51.230;-2.306;2022-11-30T04:20:39;37.60;;;17.33;;
62915;SDS011;49010;51.230;-2.306;2022-11-30T04:24:21;35.70;;;16.58;;
62915;SDS011;49010;51.230;-2.306;2022-11-30T04:28:03;44.33;;;19.58;;
62915;SDS011;49010;51.230;-2.306;2022-11-30T04:31:45;46.72;;;20.50;;
62915;SDS011;49010;51.230;-2.306;2022-11-30T04:35:27;45.15;;;19.13;;
62915;SDS011;49010;51.230;-2.306;2022-11-30T04:39:09;42.03;;;18.88;;
62915;SDS011;49010;51.230;-2.306;2022-11-30T04:42:50;43.25;;;19.55;;
62915;SDS011;49010;51.230;-2.306;2022-11-30T04:46:32;46.17;;;19.13;;
62915;SDS011;49010;51.230;-2.306;2022-11-30T04:50:14;48.28;;;20.23;;
62915;SDS011;49010;51.230;-2.306;2022-11-30T04:53:56;45.35;;;19.83;;
62915;SDS011;49010;51.230;-2.306;2022-11-30T04:57:37;44.75;;;19.85;;
62915;SDS011;49010;51.230;-2.306;2022-11-30T05:01:19;43.20;;;19.25;;
62915;SDS011;49010;51.230;-2.306;2022-11-30T05:05:01;46.50;;;20.05;;
62915;SDS011;49010;51.230;-2.306;2022-11-30T05:08:43;46.92;;;20.33;;
62915;SDS011;49010;51.230;-2.306;2022-11-30T05:12:25;48.30;;;19.23;;
62915;SDS011;49010;51.230;-2.306;2022-11-30T05:16:07;46.35;;;18.58;;
62915;SDS011;49010;51.230;-2.306;2022-11-30T05:19:50;47.80;;;18.80;;
62915;SDS011;49010;51.230;-2.306;2022-11-30T05:23:32;44.78;;;19.45;;
62915;SDS011;49010;51.230;-2.306;2022-11-30T05:27:14;44.10;;;19.00;;
62915;SDS011;49010;51.230;-2.306;2022-11-30T05:31:03;52.38;;;19.23;;
62915;SDS011;49010;51.230;-2.306;2022-11-30T05:34:45;45.40;;;19.42;;
62915;SDS011;49010;51.230;-2.306;2022-11-30T05:38:32;48.43;;;20.37;;
62915;SDS011;49010;51.230;-2.306;2022-11-30T05:42:13;47.88;;;18.55;;
62915;SDS011;49010;51.230;-2.306;2022-11-30T05:46:02;42.05;;;18.05;;
62915;SDS011;49010;51.230;-2.306;2022-11-30T05:49:45;44.47;;;18.38;;
62915;SDS011;49010;51.230;-2.306;2022-11-30T05:53:27;46.60;;;18.40;;
62915;SDS011;49010;51.230;-2.306;2022-11-30T05:57:09;49.83;;;19.50;;
62915;SDS011;49010;51.230;-2.306;2022-11-30T06:00:50;49.58;;;19.45;;
62915;SDS011;49010;51.230;-2.306;2022-11-30T06:04:32;51.67;;;20.80;;
62915;SDS011;49010;51.230;-2.306;2022-11-30T06:08:14;48.55;;;19.08;;
62915;SDS011;49010;51.230;-2.306;2022-11-30T06:11:56;47.63;;;16.98;;
62915;SDS011;49010;51.230;-2.306;2022-11-30T06:15:38;47.53;;;17.80;;
62915;SDS011;49010;51.230;-2.306;2022-11-30T06:19:21;47.38;;;18.30;;
62915;SDS011;49010;51.230;-2.306;2022-11-30T06:23:03;52.83;;;19.55;;
62915;SDS011;49010;51.230;-2.306;2022-11-30T06:26:44;42.70;;;17.75;;
62915;SDS011;49010;51.230;-2.306;2022-11-30T06:30:26;45.15;;;17.15;;
62915;SDS011;49010;51.230;-2.306;2022-11-30T06:34:08;50.78;;;18.83;;
62915;SDS011;49010;51.230;-2.306;2022-11-30T06:37:50;48.53;;;18.23;;
62915;SDS011;49010;51.230;-2.306;2022-11-30T06:41:31;49.63;;;17.27;;
62915;SDS011;49010;51.230;-2.306;2022-11-30T06:45:13;46.95;;;17.48;;
62915;SDS011;49010;51.230;-2.306;2022-11-30T06:48:55;48.22;;;19.40;;
62915;SDS011;49010;51.230;-2.306;2022-11-30T06:52:37;49.42;;;17.63;;
62915;SDS011;49010;51.230;-2.306;2022-11-30T06:56:18;44.72;;;17.30;;
62915;SDS011;49010;51.230;-2.306;2022-11-30T07:00:01;44.05;;;18.08;;
62915;SDS011;49010;51.230;-2.306;2022-11-30T07:03:44;47.13;;;18.52;;
62915;SDS011;49010;51.230;-2.306;2022-11-30T07:07:27;41.42;;;17.48;;
62915;SDS011;49010;51.230;-2.306;2022-11-30T07:11:10;46.38;;;17.00;;
62915;SDS011;49010;51.230;-2.306;2022-11-30T07:14:53;38.20;;;14.48;;
62915;SDS011;49010;51.230;-2.306;2022-11-30T07:18:37;34.30;;;14.35;;
62915;SDS011;49010;51.230;-2.306;2022-11-30T07:22:19;34.72;;;12.88;;
62915;SDS011;49010;51.230;-2.306;2022-11-30T07:26:01;26.17;;;10.95;;
62915;SDS011;49010;51.230;-2.306;2022-11-30T07:29:46;27.92;;;11.40;;
62915;SDS011;49010;51.230;-2.306;2022-11-30T07:33:29;30.17;;;12.82;;
62915;SDS011;49010;51.230;-2.306;2022-11-30T07:37:11;25.73;;;10.77;;
62915;SDS011;49010;51.230;-2.306;2022-11-30T07:40:53;26.35;;;11.68;;
62915;SDS011;49010;51.230;-2.306;2022-11-30T07:44:35;25.88;;;11.45;;
62915;SDS011;49010;51.230;-2.306;2022-11-30T07:48:16;25.55;;;11.05;;
62915;SDS011;49010;51.230;-2.306;2022-11-30T07:51:58;25.20;;;11.10;;
62915;SDS011;49010;51.230;-2.306;2022-11-30T07:55:40;24.63;;;10.10;;
62915;SDS011;49010;51.230;-2.306;2022-11-30T07:59:23;21.27;;;8.95;;
62915;SDS011;49010;51.230;-2.306;2022-11-30T08:03:04;26.45;;;10.43;;
62915;SDS011;49010;51.230;-2.306;2022-11-30T08:06:46;24.48;;;10.35;;
62915;SDS011;49010;51.230;-2.306;2022-11-30T08:10:28;24.80;;;9.07;;
62915;SDS011;49010;51.230;-2.306;2022-11-30T08:14:10;20.27;;;7.82;;
62915;SDS011;49010;51.230;-2.306;2022-11-30T08:17:53;25.50;;;8.65;;
62915;SDS011;49010;51.230;-2.306;2022-11-30T08:21:35;25.77;;;9.35;;
62915;SDS011;49010;51.230;-2.306;2022-11-30T08:25:18;27.60;;;9.68;;
62915;SDS011;49010;51.230;-2.306;2022-11-30T08:29:00;27.77;;;8.98;;
62915;SDS011;49010;51.230;-2.306;2022-11-30T08:32:42;34.75;;;11.07;;
62915;SDS011;49010;51.230;-2.306;2022-11-30T08:36:24;25.40;;;9.50;;
62915;SDS011;49010;51.230;-2.306;2022-11-30T08:40:06;27.00;;;10.60;;
62915;SDS011;49010;51.230;-2.306;2022-11-30T08:43:49;25.45;;;9.43;;
62915;SDS011;49010;51.230;-2.306;2022-11-30T08:47:31;26.55;;;9.35;;
62915;SDS011;49010;51.230;-2.306;2022-11-30T08:51:13;21.98;;;9.45;;
62915;SDS011;49010;51.230;-2.306;2022-11-30T08:54:57;24.13;;;9.75;;
62915;SDS011;49010;51.230;-2.306;2022-11-30T08:58:39;23.23;;;9.98;;
62915;SDS011;49010;51.230;-2.306;2022-11-30T09:02:21;22.45;;;9.68;;
62915;SDS011;49010;51.230;-2.306;2022-11-30T09:06:06;24.75;;;10.65;;
62915;SDS011;49010;51.230;-2.306;2022-11-30T09:09:51;22.42;;;8.65;;
62915;SDS011;49010;51.230;-2.306;2022-11-30T09:13:33;23.02;;;10.15;;
62915;SDS011;49010;51.230;-2.306;2022-11-30T09:17:15;29.35;;;11.52;;
62915;SDS011;49010;51.230;-2.306;2022-11-30T09:21:04;28.27;;;11.95;;
62915;SDS011;49010;51.230;-2.306;2022-11-30T09:24:51;28.35;;;10.45;;
62915;SDS011;49010;51.230;-2.306;2022-11-30T09:28:34;28.90;;;12.70;;
62915;SDS011;49010;51.230;-2.306;2022-11-30T09:32:16;31.10;;;12.73;;
62915;SDS011;49010;51.230;-2.306;2022-11-30T09:35:58;38.20;;;13.98;;
62915;SDS011;49010;51.230;-2.306;2022-11-30T09:39:44;39.90;;;14.67;;
62915;SDS011;49010;51.230;-2.306;2022-11-30T09:51:27;42.80;;;18.55;;
62915;SDS011;49010;51.230;-2.306;2022-11-30T09:55:26;41.22;;;17.00;;
62915;SDS011;49010;51.230;-2.306;2022-11-30T09:59:24;40.60;;;17.05;;
62915;SDS011;49010;51.230;-2.306;2022-11-30T10:03:09;41.17;;;16.40;;
62915;SDS011;49010;51.230;-2.306;2022-11-30T10:07:08;41.58;;;14.70;;
62915;SDS011;49010;51.230;-2.306;2022-11-30T10:19:55;45.58;;;16.38;;
62915;SDS011;49010;51.230;-2.306;2022-11-30T10:27:48;38.63;;;14.13;;
62915;SDS011;49010;51.230;-2.306;2022-11-30T10:35:56;43.05;;;17.00;;
62915;SDS011;49010;51.230;-2.306;2022-11-30T10:47:32;47.28;;;16.95;;
62915;SDS011;49010;51.230;-2.306;2022-11-30T10:51:17;43.30;;;16.17;;
62915;SDS011;49010;51.230;-2.306;2022-11-30T10:54:59;44.55;;;15.60;;
62915;SDS011;49010;51.230;-2.306;2022-11-30T10:58:56;50.97;;;17.00;;
62915;SDS011;49010;51.230;-2.306;2022-11-30T11:02:42;46.50;;;17.42;;
62915;SDS011;49010;51.230;-2.306;2022-11-30T11:06:26;53.92;;;19.25;;
62915;SDS011;49010;51.230;-2.306;2022-11-30T11:10:08;58.20;;;18.45;;
62915;SDS011;49010;51.230;-2.306;2022-11-30T11:14:06;48.40;;;18.05;;
62915;SDS011;49010;51.230;-2.306;2022-11-30T11:21:56;45.00;;;17.10;;
62915;SDS011;49010;51.230;-2.306;2022-11-30T11:25:38;46.88;;;17.00;;
62915;SDS011;49010;51.230;-2.306;2022-11-30T11:29:24;45.92;;;17.63;;
62915;SDS011;49010;51.230;-2.306;2022-11-30T11:37:36;58.45;;;20.00;;
62915;SDS011;49010;51.230;-2.306;2022-11-30T11:41:02;54.58;;;19.95;;
62915;SDS011;49010;51.230;-2.306;2022-11-30T11:44:51;56.15;;;22.13;;
62915;SDS011;49010;51.230;-2.306;2022-11-30T11:48:36;55.97;;;21.48;;
62915;SDS011;49010;51.230;-2.306;2022-11-30T11:52:20;52.17;;;19.90;;
62915;SDS011;49010;51.230;-2.306;2022-11-30T12:00:04;51.53;;;19.23;;
62915;SDS011;49010;51.230;-2.306;2022-11-30T12:08:43;47.83;;;17.52;;
62915;SDS011;49010;51.230;-2.306;2022-11-30T12:12:18;52.30;;;19.60;;
62915;SDS011;49010;51.230;-2.306;2022-11-30T12:23:58;53.45;;;18.80;;
62915;SDS011;49010;51.230;-2.306;2022-11-30T12:32:15;45.10;;;19.08;;
62915;SDS011;49010;51.230;-2.306;2022-11-30T13:00:11;46.03;;;17.67;;
62915;SDS011;49010;51.230;-2.306;2022-11-30T13:03:58;34.05;;;16.15;;
62915;SDS011;49010;51.230;-2.306;2022-11-30T13:07:51;44.45;;;17.55;;
62915;SDS011;49010;51.230;-2.306;2022-11-30T13:11:58;45.95;;;20.02;;
62915;SDS011;49010;51.230;-2.306;2022-11-30T13:15:45;39.30;;;17.48;;
62915;SDS011;49010;51.230;-2.306;2022-11-30T13:23:40;32.67;;;15.23;;
62915;SDS011;49010;51.230;-2.306;2022-11-30T13:27:29;38.58;;;16.70;;
62915;SDS011;49010;51.230;-2.306;2022-11-30T13:42:59;29.58;;;14.68;;
62915;SDS011;49010;51.230;-2.306;2022-11-30T13:46:46;37.45;;;15.40;;
62915;SDS011;49010;51.230;-2.306;2022-11-30T13:50:35;35.83;;;16.23;;
62915;SDS011;49010;51.230;-2.306;2022-11-30T13:58:19;32.70;;;16.52;;
62915;SDS011;49010;51.230;-2.306;2022-11-30T14:10:33;36.28;;;15.55;;
62915;SDS011;49010;51.230;-2.306;2022-11-30T14:22:21;35.92;;;16.17;;
62915;SDS011;49010;51.230;-2.306;2022-11-30T14:26:09;34.83;;;16.38;;
62915;SDS011;49010;51.230;-2.306;2022-11-30T14:29:54;34.70;;;17.40;;
62915;SDS011;49010;51.230;-2.306;2022-11-30T14:33:48;43.13;;;17.15;;
62915;SDS011;49010;51.230;-2.306;2022-11-30T14:37:38;34.22;;;16.70;;
62915;SDS011;49010;51.230;-2.306;2022-11-30T14:41:34;33.97;;;15.57;;
62915;SDS011;49010;51.230;-2.306;2022-11-30T14:45:25;33.67;;;15.27;;
62915;SDS011;49010;51.230;-2.306;2022-11-30T14:49:12;28.30;;;13.70;;
62915;SDS011;49010;51.230;-2.306;2022-11-30T15:00:34;29.27;;;14.83;;
62915;SDS011;49010;51.230;-2.306;2022-11-30T15:04:18;32.53;;;15.18;;
62915;SDS011;49010;51.230;-2.306;2022-11-30T15:08:00;31.02;;;16.55;;
62915;SDS011;49010;51.230;-2.306;2022-11-30T15:11:43;33.88;;;16.85;;
62915;SDS011;49010;51.230;-2.306;2022-11-30T15:15:27;30.58;;;16.38;;
62915;SDS011;49010;51.230;-2.306;2022-11-30T15:23:01;37.55;;;16.92;;
62915;SDS011;49010;51.230;-2.306;2022-11-30T15:26:47;37.88;;;16.67;;
62915;SDS011;49010;51.230;-2.306;2022-11-30T15:30:31;37.28;;;17.15;;
62915;SDS011;49010;51.230;-2.306;2022-11-30T15:34:15;38.00;;;16.73;;
62915;SDS011;49010;51.230;-2.306;2022-11-30T15:38:09;33.70;;;15.90;;
62915;SDS011;49010;51.230;-2.306;2022-11-30T15:41:52;31.63;;;16.02;;
62915;SDS011;49010;51.230;-2.306;2022-11-30T15:45:49;25.92;;;14.68;;
62915;SDS011;49010;51.230;-2.306;2022-11-30T15:49:33;29.15;;;14.63;;
62915;SDS011;49010;51.230;-2.306;2022-11-30T15:53:27;33.13;;;15.60;;
62915;SDS011;49010;51.230;-2.306;2022-11-30T15:57:55;31.17;;;14.27;;
62915;SDS011;49010;51.230;-2.306;2022-11-30T16:01:55;30.20;;;15.63;;
62915;SDS011;49010;51.230;-2.306;2022-11-30T16:05:52;22.90;;;13.75;;
62915;SDS011;49010;51.230;-2.306;2022-11-30T16:09:37;23.13;;;13.45;;
62915;SDS011;49010;51.230;-2.306;2022-11-30T16:13:19;23.20;;;14.07;;
62915;SDS011;49010;51.230;-2.306;2022-11-30T16:17:02;24.02;;;12.82;;
62915;SDS011;49010;51.230;-2.306;2022-11-30T16:20:50;24.73;;;14.23;;
62915;SDS011;49010;51.230;-2.306;2022-11-30T16:24:34;30.95;;;15.60;;
62915;SDS011;49010;51.230;-2.306;2022-11-30T16:28:17;29.65;;;16.40;;
62915;SDS011;49010;51.230;-2.306;2022-11-30T16:31:59;30.67;;;16.45;;
62915;SDS011;49010;51.230;-2.306;2022-11-30T16:39:36;28.15;;;15.65;;
62915;SDS011;49010;51.230;-2.306;2022-11-30T16:43:18;28.67;;;15.07;;
62915;SDS011;49010;51.230;-2.306;2022-11-30T16:47:00;28.23;;;15.50;;
62915;SDS011;49010;51.230;-2.306;2022-11-30T16:50:42;30.88;;;16.33;;
62915;SDS011;49010;51.230;-2.306;2022-11-30T16:54:24;35.90;;;18.10;;
62915;SDS011;49010;51.230;-2.306;2022-11-30T16:58:06;35.05;;;17.38;;
62915;SDS011;49010;51.230;-2.306;2022-11-30T17:01:48;35.50;;;17.58;;
62915;SDS011;49010;51.230;-2.306;2022-11-30T17:05:33;33.58;;;16.85;;
62915;SDS011;49010;51.230;-2.306;2022-11-30T17:09:17;40.38;;;18.67;;
62915;SDS011;49010;51.230;-2.306;2022-11-30T17:12:59;37.65;;;17.67;;
62915;SDS011;49010;51.230;-2.306;2022-11-30T17:16:41;38.95;;;19.92;;
62915;SDS011;49010;51.230;-2.306;2022-11-30T17:20:23;40.17;;;20.58;;
62915;SDS011;49010;51.230;-2.306;2022-11-30T17:24:06;34.38;;;19.70;;
62915;SDS011;49010;51.230;-2.306;2022-11-30T17:27:48;47.85;;;23.67;;
62915;SDS011;49010;51.230;-2.306;2022-11-30T17:31:30;42.15;;;23.33;;
62915;SDS011;49010;51.230;-2.306;2022-11-30T17:35:13;38.05;;;21.20;;
62915;SDS011;49010;51.230;-2.306;2022-11-30T17:38:56;36.03;;;19.80;;
62915;SDS011;49010;51.230;-2.306;2022-11-30T17:42:38;41.53;;;19.95;;
62915;SDS011;49010;51.230;-2.306;2022-11-30T17:46:20;33.58;;;18.48;;
62915;SDS011;49010;51.230;-2.306;2022-11-30T17:50:03;29.02;;;16.88;;
62915;SDS011;49010;51.230;-2.306;2022-11-30T17:53:46;41.53;;;21.10;;
62915;SDS011;49010;51.230;-2.306;2022-11-30T17:57:29;37.83;;;20.25;;
62915;SDS011;49010;51.230;-2.306;2022-11-30T18:01:15;39.20;;;22.05;;
62915;SDS011;49010;51.230;-2.306;2022-11-30T18:04:57;38.50;;;21.20;;
62915;SDS011;49010;51.230;-2.306;2022-11-30T18:08:39;39.17;;;21.90;;
62915;SDS011;49010;51.230;-2.306;2022-11-30T18:12:22;37.35;;;21.60;;
62915;SDS011;49010;51.230;-2.306;2022-11-30T18:19:53;33.17;;;19.42;;
62915;SDS011;49010;51.230;-2.306;2022-11-30T18:23:35;33.03;;;18.40;;
62915;SDS011;49010;51.230;-2.306;2022-11-30T18:27:17;33.15;;;17.33;;
62915;SDS011;49010;51.230;-2.306;2022-11-30T18:30:59;31.73;;;17.70;;
62915;SDS011;49010;51.230;-2.306;2022-11-30T18:34:41;29.92;;;17.02;;
62915;SDS011;49010;51.230;-2.306;2022-11-30T18:38:29;30.73;;;18.48;;
62915;SDS011;49010;51.230;-2.306;2022-11-30T18:42:17;31.33;;;18.42;;
62915;SDS011;49010;51.230;-2.306;2022-11-30T18:46:01;34.72;;;19.17;;
62915;SDS011;49010;51.230;-2.306;2022-11-30T18:49:44;35.72;;;19.67;;
62915;SDS011;49010;51.230;-2.306;2022-11-30T18:53:25;38.95;;;20.75;;
62915;SDS011;49010;51.230;-2.306;2022-11-30T18:57:07;42.42;;;22.63;;
62915;SDS011;49010;51.230;-2.306;2022-11-30T19:00:49;34.33;;;20.67;;
62915;SDS011;49010;51.230;-2.306;2022-11-30T19:04:31;39.75;;;23.10;;
62915;SDS011;49010;51.230;-2.306;2022-11-30T19:08:13;39.33;;;23.13;;
62915;SDS011;49010;51.230;-2.306;2022-11-30T19:11:54;46.97;;;23.40;;
62915;SDS011;49010;51.230;-2.306;2022-11-30T19:15:38;41.85;;;22.98;;
62915;SDS011;49010;51.230;-2.306;2022-11-30T19:19:21;47.38;;;24.50;;
62915;SDS011;49010;51.230;-2.306;2022-11-30T19:23:03;42.25;;;24.45;;
62915;SDS011;49010;51.230;-2.306;2022-11-30T19:26:44;44.05;;;23.10;;
62915;SDS011;49010;51.230;-2.306;2022-11-30T19:30:26;38.33;;;23.10;;
62915;SDS011;49010;51.230;-2.306;2022-11-30T19:34:08;48.42;;;26.02;;
62915;SDS011;49010;51.230;-2.306;2022-11-30T19:37:53;45.42;;;24.50;;
62915;SDS011;49010;51.230;-2.306;2022-11-30T19:41:35;40.35;;;23.92;;
62915;SDS011;49010;51.230;-2.306;2022-11-30T19:45:17;43.40;;;24.08;;
62915;SDS011;49010;51.230;-2.306;2022-11-30T19:48:59;39.25;;;22.05;;
62915;SDS011;49010;51.230;-2.306;2022-11-30T19:52:42;40.00;;;23.40;;
62915;SDS011;49010;51.230;-2.306;2022-11-30T19:56:24;37.47;;;20.48;;
62915;SDS011;49010;51.230;-2.306;2022-11-30T20:00:07;40.47;;;22.30;;
62915;SDS011;49010;51.230;-2.306;2022-11-30T20:03:50;36.22;;;20.75;;
62915;SDS011;49010;51.230;-2.306;2022-11-30T20:07:34;38.08;;;21.23;;
62915;SDS011;49010;51.230;-2.306;2022-11-30T20:11:16;33.30;;;18.48;;
62915;SDS011;49010;51.230;-2.306;2022-11-30T20:14:58;33.15;;;19.45;;
62915;SDS011;49010;51.230;-2.306;2022-11-30T20:18:40;32.70;;;19.27;;
62915;SDS011;49010;51.230;-2.306;2022-11-30T20:22:26;32.10;;;17.53;;
62915;SDS011;49010;51.230;-2.306;2022-11-30T20:26:21;29.35;;;15.77;;
62915;SDS011;49010;51.230;-2.306;2022-11-30T20:30:10;24.90;;;14.68;;
62915;SDS011;49010;51.230;-2.306;2022-11-30T20:33:52;28.45;;;14.77;;
62915;SDS011;49010;51.230;-2.306;2022-11-30T20:37:34;23.58;;;12.80;;
62915;SDS011;49010;51.230;-2.306;2022-11-30T20:41:19;30.90;;;16.02;;
62915;SDS011;49010;51.230;-2.306;2022-11-30T20:45:06;40.17;;;18.15;;
62915;SDS011;49010;51.230;-2.306;2022-11-30T20:48:48;40.55;;;18.40;;
62915;SDS011;49010;51.230;-2.306;2022-11-30T20:52:30;38.58;;;17.80;;
62915;SDS011;49010;51.230;-2.306;2022-11-30T20:56:13;33.63;;;16.95;;
62915;SDS011;49010;51.230;-2.306;2022-11-30T20:59:55;33.20;;;16.45;;
62915;SDS011;49010;51.230;-2.306;2022-11-30T21:03:37;32.47;;;16.63;;
62915;SDS011;49010;51.230;-2.306;2022-11-30T21:07:19;29.05;;;14.30;;
62915;SDS011;49010;51.230;-2.306;2022-11-30T21:11:05;28.02;;;14.70;;
62915;SDS011;49010;51.230;-2.306;2022-11-30T21:14:55;38.13;;;16.33;;
62915;SDS011;49010;51.230;-2.306;2022-11-30T21:18:37;26.27;;;15.13;;
62915;SDS011;49010;51.230;-2.306;2022-11-30T21:22:20;33.58;;;14.18;;
62915;SDS011;49010;51.230;-2.306;2022-11-30T21:26:03;39.10;;;14.93;;
62915;SDS011;49010;51.230;-2.306;2022-11-30T21:29:46;39.15;;;12.85;;
62915;SDS011;49010;51.230;-2.306;2022-11-30T21:33:28;29.67;;;11.82;;
62915;SDS011;49010;51.230;-2.306;2022-11-30T21:37:09;32.53;;;15.18;;
62915;SDS011;49010;51.230;-2.306;2022-11-30T21:40:52;32.13;;;14.75;;
62915;SDS011;49010;51.230;-2.306;2022-11-30T21:44:35;28.77;;;13.93;;
62915;SDS011;49010;51.230;-2.306;2022-11-30T21:48:17;31.92;;;13.98;;
62915;SDS011;49010;51.230;-2.306;2022-11-30T21:52:00;36.17;;;14.98;;
62915;SDS011;49010;51.230;-2.306;2022-11-30T21:55:42;38.17;;;15.93;;
62915;SDS011;49010;51.230;-2.306;2022-11-30T21:59:23;36.90;;;15.10;;
62915;SDS011;49010;51.230;-2.306;2022-11-30T22:03:05;33.72;;;15.48;;
62915;SDS011;49010;51.230;-2.306;2022-11-30T22:06:47;39.28;;;15.75;;
62915;SDS011;49010;51.230;-2.306;2022-11-30T22:10:30;37.63;;;15.70;;
62915;SDS011;49010;51.230;-2.306;2022-11-30T22:14:13;38.65;;;17.35;;
62915;SDS011;49010;51.230;-2.306;2022-11-30T22:17:56;39.42;;;18.17;;
62915;SDS011;49010;51.230;-2.306;2022-11-30T22:21:37;47.90;;;18.50;;
62915;SDS011;49010;51.230;-2.306;2022-11-30T22:25:19;38.53;;;17.55;;
62915;SDS011;49010;51.230;-2.306;2022-11-30T22:29:05;37.03;;;17.15;;
62915;SDS011;49010;51.230;-2.306;2022-11-30T22:32:47;34.15;;;16.40;;
62915;SDS011;49010;51.230;-2.306;2022-11-30T22:36:30;37.42;;;16.45;;
62915;SDS011;49010;51.230;-2.306;2022-11-30T22:40:13;44.55;;;17.85;;
62915;SDS011;49010;51.230;-2.306;2022-11-30T22:43:56;40.95;;;17.38;;
62915;SDS011;49010;51.230;-2.306;2022-11-30T22:47:38;42.65;;;18.02;;
62915;SDS011;49010;51.230;-2.306;2022-11-30T22:51:24;38.22;;;17.27;;
62915;SDS011;49010;51.230;-2.306;2022-11-30T22:55:07;50.65;;;19.15;;
62915;SDS011;49010;51.230;-2.306;2022-11-30T22:58:50;40.92;;;17.48;;
62915;SDS011;49010;51.230;-2.306;2022-11-30T23:02:34;40.22;;;16.85;;
62915;SDS011;49010;51.230;-2.306;2022-11-30T23:06:17;44.25;;;17.13;;
62915;SDS011;49010;51.230;-2.306;2022-11-30T23:10:00;36.13;;;16.90;;
62915;SDS011;49010;51.230;-2.306;2022-11-30T23:13:42;39.55;;;17.58;;
62915;SDS011;49010;51.230;-2.306;2022-11-30T23:17:24;41.75;;;17.42;;
62915;SDS011;49010;51.230;-2.306;2022-11-30T23:21:11;43.83;;;17.30;;
62915;SDS011;49010;51.230;-2.306;2022-11-30T23:24:54;39.97;;;17.98;;
62915;SDS011;49010;51.230;-2.306;2022-11-30T23:28:36;40.55;;;16.08;;
62915;SDS011;49010;51.230;-2.306;2022-11-30T23:32:21;40.55;;;18.00;;
62915;SDS011;49010;51.230;-2.306;2022-11-30T23:36:03;41.30;;;18.15;;
62915;SDS011;49010;51.230;-2.306;2022-11-30T23:39:46;41.72;;;16.23;;
62915;SDS011;49010;51.230;-2.306;2022-11-30T23:43:28;37.72;;;16.33;;
62915;SDS011;49010;51.230;-2.306;2022-11-30T23:47:10;48.42;;;17.80;;
62915;SDS011;49010;51.230;-2.306;2022-11-30T23:50:58;55.45;;;17.27;;
62915;SDS011;49010;51.230;-2.306;2022-11-30T23:54:40;41.70;;;15.88;;
62915;SDS011;49010;51.230;-2.306;2022-11-30T23:58:22;39.88;;;15.82;;
